Francesville, Indiana
Current Conditions -  °F | °C
As of 7:35 AM on Saturday 20 Dec 2014 (Local Time) from KRZL Reporting Station
Haze Haze  
Wind Chill: -1°   Ceiling: 2500
Heat Index: -1°   Visibility: 4mi
Dew Point: -1°   Wind: 0mph
Humidity: 100%   Direction: NA
Pressure: 30.29"   Gusts: NA
Location:  40.99°N, 86.88°W
Report Text: KRZL 201335Z AUTO 00000KT 4SM BR OVC025 M01/M01 A3029 RMK AO2
Loading
Personal Weather Stations






























Interactive Weather Map New forecast layout! Learn more

10-Day Weather Forecast

Advertisements
Track Severe Weather on mobile